Aviation Digital Data Service (ADDS)

Output produced by METARs form (0858 UTC 06 March 2015)
found at http://www.aviationweather.gov/adds/metars/
 
KSPI 060520Z 0606/0706 VRB03KT P6SM SKC 
     FM061100 17007KT P6SM BKN120 
     FM061500 18015G22KT P6SM BKN100 
     FM062300 20010KT P6SM SCT250